This is the latest recevied weather packets stored in our database for station/object IN3XSV-15. If no packets are shown the sender has not sent any weather packets the latest 1 day(s).
| Time | Temp. | Humidity | Pressure | Rain* | Wind** | Luminosity | Snow |
|---|---|---|---|---|---|---|---|
| 1777967699 | 3.89° C | 93% | 854.6 hPa | 0 mm | 3.58 m/s, 180° | - | - |
| 1777967399 | 3.89° C | 93% | 854.6 hPa | 0 mm | 2.68 m/s, 157° | - | - |
| 1777967099 | 3.89° C | 93% | 854.6 hPa | 0 mm | 3.13 m/s, 180° | - | - |
| 1777966799 | 3.89° C | 93% | 854.6 hPa | 0 mm | 2.68 m/s, 180° | - | - |
| 1777966499 | 3.89° C | 92% | 854.7 hPa | 0 mm | 2.68 m/s, 180° | - | - |
| 1777966199 | 3.89° C | 92% | 854.7 hPa | 0 mm | 2.24 m/s, 202° | - | - |
| 1777965899 | 3.89° C | 92% | 854.7 hPa | 0 mm | 1.34 m/s, 157° | - | - |
| 1777965599 | 3.89° C | 92% | 854.8 hPa | 0 mm | 2.68 m/s, 180° | - | - |
| 1777965299 | 4.44° C | 91% | 854.8 hPa | 0 mm | 0.89 m/s, 157° | - | - |
| 1777964999 | 4.44° C | 91% | 854.9 hPa | 0 mm | 0.89 m/s, 180° | - | - |
| 1777964699 | 4.44° C | 90% | 854.8 hPa | 0 mm | 1.34 m/s, 180° | - | - |
| 1777964399 | 4.44° C | 90% | 854.8 hPa | 0 mm | 1.79 m/s, 180° | - | - |
| 1777964099 | 4.44° C | 89% | 854.8 hPa | 0 mm | 2.24 m/s, 180° | - | - |
| 1777963799 | 4.44° C | 89% | 854.9 hPa | 0 mm | 2.24 m/s, 180° | - | - |
| 1777963499 | 4.44° C | 88% | 854.9 hPa | 0 mm | 0.89 m/s, 157° | - | - |
| 1777963199 | 4.44° C | 87% | 854.8 hPa | 0 mm | 3.13 m/s, 180° | - | - |
| 1777962899 | 5° C | 86% | 854.9 hPa | 0 mm | 1.79 m/s, 202° | - | - |
| 1777962599 | 5° C | 85% | 854.9 hPa | 0 mm | 1.79 m/s, 180° | - | - |
| 1777962299 | 5° C | 85% | 854.9 hPa | 0 mm | 1.79 m/s, 180° | - | - |
| 1777961999 | 5° C | 85% | 854.9 hPa | 0 mm | 2.68 m/s, 180° | - | - |
| 1777961699 | 5° C | 85% | 854.9 hPa | 0 mm | 2.24 m/s, 180° | - | - |
| 1777961399 | 4.44° C | 85% | 854.9 hPa | 0 mm | 2.24 m/s, 180° | - | - |
| 1777961099 | 4.44° C | 84% | 854.9 hPa | 0 mm | 2.68 m/s, 180° | - | - |
| 1777960799 | 4.44° C | 84% | 854.9 hPa | 0 mm | 2.68 m/s, 180° | - | - |
| 1777960499 | 4.44° C | 84% | 855 hPa | 0 mm | 1.79 m/s, 180° | - | - |
* Rain latest hour (hover to see other rain measurements)
** Current wind speed in m/s (hover to see current wind gust speed)